Time;durP1;ratioP1;P1;durP2;ratioP2;P2;SDS_P1;SDS_P2;PMS_P1;PMS_P2;Temp;Humidity;BMP_temperature;BMP_pressure;BME280_temperature;BME280_humidity;BME280_pressure;Samples;Min_cycle;Max_cycle;Signal;HPM_P1;HPM_P2
2021/12/22 00:02:10;;;;;;;35.85;19.48;;;;;;;;;;5014445;28;20041;-66
2021/12/22 00:04:44;;;;;;;35.67;18.88;;;;;;;;;;5014508;28;20049;-66
2021/12/22 00:07:12;;;;;;;38.75;20.23;;;;;;;;;;5014462;28;20054;-66
2021/12/22 00:09:39;;;;;;;35.70;20.13;;;;;;;;;;5014447;28;20065;-66
2021/12/22 00:12:06;;;;;;;32.95;19.73;;;;;;;;;;5014392;28;20080;-66
2021/12/22 00:14:33;;;;;;;37.63;20.42;;;;;;;;;;5014162;28;20054;-66
2021/12/22 00:16:59;;;;;;;32.67;19.00;;;;;;;;;;5014372;28;20046;-66
2021/12/22 00:19:26;;;;;;;32.60;19.30;;;;;;;;;;5014263;28;20076;-66
2021/12/22 00:21:53;;;;;;;35.35;20.02;;;;;;;;;;5014256;28;20555;-66
2021/12/22 00:24:19;;;;;;;30.75;19.30;;;;;;;;;;5013835;28;20419;-67
2021/12/22 00:26:46;;;;;;;36.70;20.45;;;;;;;;;;5014517;28;20053;-66
2021/12/22 00:29:13;;;;;;;32.15;18.88;;;;;;;;;;5013978;28;20452;-66
2021/12/22 00:31:44;;;;;;;32.28;18.40;;;;;;;;;;5014364;28;20049;-66
2021/12/22 00:34:16;;;;;;;30.00;17.88;;;;;;;;;;5013795;28;20114;-67
2021/12/22 00:36:44;;;;;;;26.60;18.55;;;;;;;;;;5014067;28;20488;-66
2021/12/22 00:39:11;;;;;;;33.42;19.27;;;;;;;;;;5013596;28;20420;-66
2021/12/22 00:41:38;;;;;;;28.90;19.08;;;;;;;;;;5013707;28;20104;-67
2021/12/22 00:44:05;;;;;;;38.22;20.50;;;;;;;;;;5013566;28;20096;-66
2021/12/22 00:46:32;;;;;;;36.63;18.58;;;;;;;;;;5012547;28;20428;-66
2021/12/22 00:48:58;;;;;;;26.08;18.40;;;;;;;;;;5014002;28;20050;-67
2021/12/22 00:51:25;;;;;;;30.73;19.10;;;;;;;;;;5013604;28;20050;-66
2021/12/22 00:53:51;;;;;;;31.50;19.35;;;;;;;;;;5013399;28;20049;-66
2021/12/22 00:56:18;;;;;;;32.83;20.05;;;;;;;;;;5013551;28;20053;-67
2021/12/22 00:58:45;;;;;;;37.40;20.90;;;;;;;;;;5013407;28;20124;-67
2021/12/22 01:01:11;;;;;;;35.50;20.73;;;;;;;;;;5013564;28;20049;-66
2021/12/22 01:03:38;;;;;;;30.75;18.83;;;;;;;;;;5013168;28;20046;-66
2021/12/22 01:06:05;;;;;;;30.42;18.95;;;;;;;;;;5013517;28;20077;-66
2021/12/22 01:08:32;;;;;;;33.70;19.70;;;;;;;;;;5013082;28;20084;-66
2021/12/22 01:10:58;;;;;;;34.33;19.80;;;;;;;;;;5013358;28;20053;-67
2021/12/22 01:13:25;;;;;;;37.97;20.35;;;;;;;;;;5013026;28;20050;-66
2021/12/22 01:15:52;;;;;;;36.20;19.50;;;;;;;;;;5013435;28;20108;-66
2021/12/22 01:18:29;;;;;;;34.78;18.65;;;;;;;;;;5012971;28;20516;-67
2021/12/22 01:23:23;;;;;;;31.90;19.17;;;;;;;;;;5012817;28;20076;-67
2021/12/22 01:25:49;;;;;;;34.30;18.73;;;;;;;;;;5012903;28;20057;-66
2021/12/22 01:28:18;;;;;;;37.72;20.48;;;;;;;;;;5011826;28;20620;-66
2021/12/22 01:30:47;;;;;;;38.42;18.38;;;;;;;;;;5013029;28;20108;-66
2021/12/22 01:33:15;;;;;;;31.92;18.45;;;;;;;;;;5012859;28;20448;-66
2021/12/22 01:35:42;;;;;;;30.92;17.77;;;;;;;;;;5012733;28;20053;-66
2021/12/22 01:38:09;;;;;;;28.48;18.00;;;;;;;;;;5012762;28;20085;-66
2021/12/22 01:40:39;;;;;;;32.05;18.70;;;;;;;;;;5012695;28;20488;-66
2021/12/22 01:43:05;;;;;;;33.00;17.85;;;;;;;;;;5011671;28;20116;-66
2021/12/22 01:49:11;;;;;;;32.58;19.10;;;;;;;;;;5011563;28;20049;-66
2021/12/22 01:52:11;;;;;;;34.38;20.40;;;;;;;;;;5001728;28;20060;-65
2021/12/22 01:55:03;;;;;;;35.05;19.83;;;;;;;;;;5011970;28;20057;-67
2021/12/22 01:57:31;;;;;;;31.83;18.92;;;;;;;;;;5012381;28;20057;-66
2021/12/22 02:00:00;;;;;;;31.55;18.40;;;;;;;;;;5012436;28;20049;-66
2021/12/22 02:02:27;;;;;;;30.75;18.92;;;;;;;;;;5012232;28;20045;-66
2021/12/22 02:04:53;;;;;;;31.58;18.27;;;;;;;;;;5011183;28;20057;-66
2021/12/22 02:07:20;;;;;;;28.00;18.80;;;;;;;;;;5012210;28;20053;-66
2021/12/22 02:12:19;;;;;;;33.55;18.25;;;;;;;;;;5012257;28;20054;-66
2021/12/22 02:14:46;;;;;;;35.00;18.92;;;;;;;;;;5012132;28;20050;-66
2021/12/22 02:17:13;;;;;;;32.30;19.38;;;;;;;;;;5012068;28;20463;-67
2021/12/22 02:19:44;;;;;;;36.35;18.27;;;;;;;;;;5012199;28;20104;-67
2021/12/22 02:22:14;;;;;;;31.75;17.83;;;;;;;;;;5011971;28;20496;-66
2021/12/22 02:24:50;;;;;;;33.25;18.67;;;;;;;;;;5011902;28;20050;-66
2021/12/22 02:27:45;;;;;;;34.33;17.77;;;;;;;;;;5012098;28;20127;-66
2021/12/22 02:30:17;;;;;;;30.77;16.92;;;;;;;;;;4992417;28;20105;-66
2021/12/22 02:35:11;;;;;;;29.25;18.02;;;;;;;;;;4992376;28;20050;-66
2021/12/22 02:37:44;;;;;;;32.58;17.98;;;;;;;;;;4975009;28;20054;-65
2021/12/22 02:40:15;;;;;;;31.98;18.25;;;;;;;;;;4992525;28;20101;-66
2021/12/22 02:42:42;;;;;;;33.92;18.33;;;;;;;;;;4992297;28;20096;-66
2021/12/22 02:45:12;;;;;;;33.65;18.05;;;;;;;;;;4992480;28;20058;-66
2021/12/22 02:47:39;;;;;;;33.40;18.67;;;;;;;;;;4992876;28;20398;-66
2021/12/22 02:50:06;;;;;;;35.33;18.17;;;;;;;;;;4992463;28;20104;-66
2021/12/22 02:52:47;;;;;;;31.95;16.58;;;;;;;;;;4991935;28;20046;-66
2021/12/22 02:55:14;;;;;;;30.50;17.65;;;;;;;;;;5000300;28;20070;-66
2021/12/22 02:57:46;;;;;;;32.47;16.13;;;;;;;;;;5011733;28;20077;-66
2021/12/22 03:05:25;;;;;;;28.50;17.20;;;;;;;;;;5015629;28;20049;-67
2021/12/22 03:07:52;;;;;;;24.33;15.73;;;;;;;;;;5015577;28;20100;-67
2021/12/22 03:10:18;;;;;;;26.10;16.23;;;;;;;;;;5015639;28;20096;-67
2021/12/22 03:12:50;;;;;;;27.25;16.35;;;;;;;;;;5015535;28;20100;-66
2021/12/22 03:15:17;;;;;;;28.27;16.25;;;;;;;;;;5015422;28;20598;-67
2021/12/22 03:17:44;;;;;;;26.02;15.98;;;;;;;;;;5032628;28;20045;-67
2021/12/22 03:20:13;;;;;;;28.38;16.40;;;;;;;;;;5035248;28;20550;-67
2021/12/22 03:22:42;;;;;;;29.38;17.85;;;;;;;;;;5035013;28;20053;-67
2021/12/22 03:25:14;;;;;;;28.98;16.95;;;;;;;;;;5035217;28;20061;-66
2021/12/22 03:27:42;;;;;;;27.70;15.23;;;;;;;;;;5035064;28;20107;-66
2021/12/22 03:30:11;;;;;;;32.65;16.73;;;;;;;;;;5035311;28;20357;-66
2021/12/22 03:32:37;;;;;;;31.63;17.30;;;;;;;;;;5035167;28;20119;-66
2021/12/22 03:35:05;;;;;;;32.47;17.27;;;;;;;;;;5035013;28;20390;-66
2021/12/22 03:37:31;;;;;;;32.03;17.98;;;;;;;;;;5034649;28;20076;-66
2021/12/22 03:39:58;;;;;;;29.98;16.65;;;;;;;;;;5034888;28;20107;-66
2021/12/22 03:42:25;;;;;;;32.42;17.15;;;;;;;;;;5034706;28;20050;-67
2021/12/22 03:44:51;;;;;;;27.60;16.48;;;;;;;;;;5034737;28;20095;-66
2021/12/22 03:47:19;;;;;;;27.25;16.40;;;;;;;;;;5028601;28;20104;-66
2021/12/22 03:49:46;;;;;;;31.10;16.95;;;;;;;;;;5014775;28;20104;-66
2021/12/22 03:52:12;;;;;;;27.23;16.75;;;;;;;;;;5014726;28;20108;-66
2021/12/22 03:54:39;;;;;;;25.42;15.00;;;;;;;;;;5014615;28;20405;-67
2021/12/22 03:57:06;;;;;;;27.73;15.70;;;;;;;;;;5014770;28;20414;-66
2021/12/22 03:59:32;;;;;;;32.58;17.80;;;;;;;;;;5014820;28;20053;-66
2021/12/22 04:01:59;;;;;;;29.80;16.50;;;;;;;;;;5014728;28;20491;-66
2021/12/22 04:04:26;;;;;;;26.90;16.77;;;;;;;;;;5014300;28;20053;-66
2021/12/22 04:06:52;;;;;;;26.50;16.10;;;;;;;;;;5014696;28;20199;-67
2021/12/22 04:09:26;;;;;;;28.67;17.30;;;;;;;;;;5014106;28;20100;-67
2021/12/22 04:11:53;;;;;;;29.27;17.73;;;;;;;;;;5014784;28;20566;-67
2021/12/22 04:14:20;;;;;;;29.90;17.83;;;;;;;;;;5013673;28;20053;-66
2021/12/22 04:16:46;;;;;;;32.80;17.40;;;;;;;;;;5014485;28;20108;-66
2021/12/22 04:19:13;;;;;;;26.25;15.77;;;;;;;;;;5014525;28;20096;-67
2021/12/22 04:21:39;;;;;;;27.75;16.50;;;;;;;;;;5014541;28;20077;-66
2021/12/22 04:24:07;;;;;;;26.88;15.65;;;;;;;;;;5013118;28;20050;-66
2021/12/22 04:26:34;;;;;;;28.45;15.65;;;;;;;;;;5014156;28;20049;-66
2021/12/22 04:29:01;;;;;;;28.00;15.80;;;;;;;;;;5014211;28;20104;-66
2021/12/22 04:31:27;;;;;;;25.58;15.93;;;;;;;;;;5014087;28;20131;-66
2021/12/22 04:33:54;;;;;;;25.75;15.98;;;;;;;;;;5014076;28;20125;-66
2021/12/22 04:36:21;;;;;;;31.40;16.73;;;;;;;;;;5013852;28;20104;-67
2021/12/22 04:38:47;;;;;;;27.27;16.90;;;;;;;;;;5013886;28;20135;-67
2021/12/22 04:41:14;;;;;;;26.15;15.85;;;;;;;;;;5013893;28;20135;-67
2021/12/22 04:43:41;;;;;;;26.83;16.67;;;;;;;;;;5013621;28;20108;-66
2021/12/22 04:46:07;;;;;;;24.00;15.60;;;;;;;;;;5013795;28;20081;-66
2021/12/22 04:48:35;;;;;;;29.30;16.38;;;;;;;;;;5013622;28;20069;-66
2021/12/22 04:51:11;;;;;;;22.88;14.60;;;;;;;;;;5013649;28;20104;-67
2021/12/22 04:53:49;;;;;;;26.40;14.32;;;;;;;;;;5013589;28;20409;-68
2021/12/22 04:56:16;;;;;;;29.00;15.45;;;;;;;;;;5013831;28;20103;-67
2021/12/22 04:58:42;;;;;;;27.00;15.27;;;;;;;;;;5013545;28;20097;-67
2021/12/22 05:01:09;;;;;;;27.25;16.58;;;;;;;;;;5013492;28;20049;-67
2021/12/22 05:03:36;;;;;;;26.17;15.57;;;;;;;;;;5013227;28;20054;-67
2021/12/22 05:06:02;;;;;;;27.38;15.88;;;;;;;;;;5013355;28;20107;-67
2021/12/22 05:08:29;;;;;;;25.58;15.65;;;;;;;;;;5012128;28;20100;-66
2021/12/22 05:10:56;;;;;;;27.80;17.10;;;;;;;;;;5013645;28;20096;-67
2021/12/22 05:13:23;;;;;;;33.28;19.20;;;;;;;;;;5013053;28;20294;-67
2021/12/22 05:15:51;;;;;;;29.63;17.65;;;;;;;;;;5013501;28;20185;-67
2021/12/22 05:20:48;;;;;;;34.95;19.42;;;;;;;;;;5013118;28;20077;-67
2021/12/22 05:23:16;;;;;;;32.88;18.35;;;;;;;;;;5013026;28;20046;-67
2021/12/22 05:25:43;;;;;;;31.35;17.15;;;;;;;;;;5012110;28;20554;-67
2021/12/22 05:28:09;;;;;;;32.35;18.27;;;;;;;;;;5012888;28;20402;-66
2021/12/22 05:30:36;;;;;;;29.77;17.85;;;;;;;;;;5013088;28;20468;-66
2021/12/22 05:33:03;;;;;;;29.90;18.02;;;;;;;;;;5012782;28;20054;-66
2021/12/22 05:35:29;;;;;;;30.30;17.50;;;;;;;;;;5012741;28;20425;-67
2021/12/22 05:37:56;;;;;;;26.48;17.17;;;;;;;;;;5011713;28;20046;-66
2021/12/22 05:40:27;;;;;;;26.55;16.65;;;;;;;;;;5012945;28;20050;-66
2021/12/22 05:42:55;;;;;;;26.00;16.42;;;;;;;;;;5012716;28;20080;-67
2021/12/22 05:45:21;;;;;;;27.80;16.50;;;;;;;;;;5012602;28;20513;-67
2021/12/22 05:47:48;;;;;;;28.38;16.38;;;;;;;;;;5012799;28;20080;-65
2021/12/22 05:50:15;;;;;;;28.85;17.25;;;;;;;;;;5012744;28;20057;-66
2021/12/22 05:52:41;;;;;;;34.10;17.75;;;;;;;;;;5012596;28;20108;-67
2021/12/22 05:55:08;;;;;;;29.98;17.52;;;;;;;;;;5012584;28;20053;-66
2021/12/22 05:57:34;;;;;;;27.65;16.25;;;;;;;;;;5012320;28;20585;-67
2021/12/22 06:00:02;;;;;;;44.80;22.30;;;;;;;;;;5012467;28;20095;-68
2021/12/22 06:02:29;;;;;;;45.60;22.48;;;;;;;;;;5012194;28;20053;-66
2021/12/22 06:04:56;;;;;;;34.10;20.20;;;;;;;;;;5012563;28;20046;-67
2021/12/22 06:07:22;;;;;;;30.98;19.17;;;;;;;;;;5012260;28;20096;-66
2021/12/22 06:09:49;;;;;;;25.83;16.90;;;;;;;;;;5012267;28;20058;-66
2021/12/22 06:12:15;;;;;;;26.27;15.63;;;;;;;;;;5012347;28;20076;-67
2021/12/22 06:14:42;;;;;;;23.60;14.57;;;;;;;;;;5011966;28;20556;-67
2021/12/22 06:17:09;;;;;;;23.83;14.90;;;;;;;;;;5012202;28;20057;-66
2021/12/22 06:19:35;;;;;;;26.35;16.08;;;;;;;;;;5012040;28;20505;-66
2021/12/22 06:22:02;;;;;;;25.00;15.00;;;;;;;;;;5012028;28;20515;-67
2021/12/22 06:24:29;;;;;;;27.85;16.60;;;;;;;;;;5010499;28;20085;-66
2021/12/22 06:26:57;;;;;;;26.15;15.88;;;;;;;;;;5012211;28;20049;-67
2021/12/22 06:29:25;;;;;;;30.15;16.77;;;;;;;;;;5012001;28;20467;-67
2021/12/22 06:31:51;;;;;;;29.27;16.25;;;;;;;;;;5012160;28;20065;-66
2021/12/22 06:34:18;;;;;;;31.48;16.42;;;;;;;;;;5011685;28;20057;-67
2021/12/22 06:36:44;;;;;;;23.90;14.13;;;;;;;;;;5011686;28;20054;-68
2021/12/22 06:39:11;;;;;;;28.73;15.27;;;;;;;;;;5011644;28;20595;-66
2021/12/22 06:41:38;;;;;;;27.63;15.88;;;;;;;;;;4994500;28;20046;-67
2021/12/22 06:44:05;;;;;;;28.88;16.73;;;;;;;;;;5011725;28;20045;-67
2021/12/22 06:46:33;;;;;;;26.80;16.05;;;;;;;;;;5011807;28;20046;-68
2021/12/22 06:49:00;;;;;;;27.70;15.90;;;;;;;;;;5012037;28;20057;-65
2021/12/22 06:51:26;;;;;;;27.90;15.90;;;;;;;;;;5011728;28;20456;-67
2021/12/22 06:53:53;;;;;;;25.13;15.57;;;;;;;;;;5011767;28;20050;-67
2021/12/22 06:56:19;;;;;;;26.13;16.42;;;;;;;;;;5011565;28;20050;-67
2021/12/22 06:58:46;;;;;;;26.73;17.08;;;;;;;;;;5009032;28;20054;-66
2021/12/22 07:01:17;;;;;;;29.05;16.10;;;;;;;;;;5009909;28;20058;-66
2021/12/22 07:03:47;;;;;;;30.48;17.33;;;;;;;;;;5009633;28;20128;-67
2021/12/22 07:06:13;;;;;;;28.55;16.55;;;;;;;;;;5009572;28;20054;-67
2021/12/22 07:08:40;;;;;;;28.35;15.85;;;;;;;;;;5009502;28;20104;-64
2021/12/22 07:11:07;;;;;;;28.75;15.70;;;;;;;;;;5009187;28;20390;-66
2021/12/22 07:13:33;;;;;;;29.02;16.08;;;;;;;;;;5009595;28;20045;-66
2021/12/22 07:16:00;;;;;;;27.63;16.63;;;;;;;;;;5009604;28;20100;-65
2021/12/22 07:18:27;;;;;;;27.55;15.77;;;;;;;;;;5009628;28;20054;-65
2021/12/22 07:20:53;;;;;;;31.15;17.98;;;;;;;;;;5008822;28;20155;-66
2021/12/22 07:23:20;;;;;;;28.88;16.10;;;;;;;;;;5008842;28;20050;-65
2021/12/22 07:25:46;;;;;;;29.65;17.30;;;;;;;;;;5009615;28;20686;-65
2021/12/22 07:28:13;;;;;;;33.13;16.65;;;;;;;;;;5009473;28;20054;-66
2021/12/22 07:30:40;;;;;;;29.10;16.42;;;;;;;;;;5009292;28;20050;-65
2021/12/22 07:33:06;;;;;;;37.25;17.35;;;;;;;;;;5009358;28;20049;-66
2021/12/22 07:35:46;;;;;;;27.95;17.27;;;;;;;;;;5009259;28;20496;-64
2021/12/22 07:38:27;;;;;;;27.27;16.35;;;;;;;;;;5007491;28;20096;-65
2021/12/22 07:40:56;;;;;;;33.47;16.73;;;;;;;;;;5009538;28;20104;-64
2021/12/22 07:43:23;;;;;;;27.33;15.98;;;;;;;;;;5008824;28;20120;-63
2021/12/22 07:45:50;;;;;;;34.90;17.75;;;;;;;;;;5009372;28;20053;-65
2021/12/22 07:48:17;;;;;;;31.70;16.38;;;;;;;;;;5009728;28;20050;-69
2021/12/22 07:50:44;;;;;;;31.85;17.80;;;;;;;;;;5012590;28;20108;-65
2021/12/22 07:53:10;;;;;;;29.42;16.88;;;;;;;;;;5012730;28;20112;-65
2021/12/22 07:55:37;;;;;;;38.22;20.20;;;;;;;;;;5012765;28;20112;-66
2021/12/22 07:58:07;;;;;;;37.05;20.08;;;;;;;;;;5011313;28;20050;-66
2021/12/22 08:00:35;;;;;;;37.35;20.00;;;;;;;;;;5012976;28;20049;-65
2021/12/22 08:03:02;;;;;;;38.50;20.92;;;;;;;;;;5012037;28;20570;-65
2021/12/22 08:05:49;;;;;;;37.88;19.90;;;;;;;;;;5012834;28;20056;-64
2021/12/22 08:08:17;;;;;;;42.25;24.00;;;;;;;;;;5012429;28;20115;-65
2021/12/22 08:10:48;;;;;;;37.75;18.80;;;;;;;;;;5012794;28;20141;-64
2021/12/22 08:13:15;;;;;;;40.88;21.85;;;;;;;;;;5012216;28;20084;-64
2021/12/22 08:15:43;;;;;;;39.72;22.08;;;;;;;;;;4971937;28;20047;-65
2021/12/22 08:18:10;;;;;;;36.00;21.05;;;;;;;;;;4942508;28;22908;-64
2021/12/22 08:20:37;;;;;;;37.78;20.20;;;;;;;;;;4962321;28;20102;-65
2021/12/22 08:23:04;;;;;;;34.92;20.70;;;;;;;;;;4993360;28;20046;-65
2021/12/22 08:25:31;;;;;;;37.03;20.83;;;;;;;;;;4958910;28;20118;-67
2021/12/22 08:27:57;;;;;;;35.03;20.30;;;;;;;;;;4962564;28;20573;-65
2021/12/22 08:30:24;;;;;;;33.17;19.10;;;;;;;;;;4960353;28;20047;-65
2021/12/22 08:32:51;;;;;;;36.20;20.20;;;;;;;;;;4963037;28;20061;-63
2021/12/22 08:35:20;;;;;;;35.20;19.42;;;;;;;;;;4989623;28;20098;-63
2021/12/22 08:40:31;;;;;;;36.33;20.60;;;;;;;;;;4957351;28;20094;-65
2021/12/22 08:43:00;;;;;;;33.85;19.73;;;;;;;;;;4958325;28;20497;-64
2021/12/22 08:45:27;;;;;;;38.00;22.10;;;;;;;;;;4958622;28;20133;-65
2021/12/22 08:47:54;;;;;;;41.10;24.20;;;;;;;;;;4958831;28;20102;-65
2021/12/22 08:50:24;;;;;;;47.13;28.10;;;;;;;;;;4960153;28;20077;-65
2021/12/22 08:52:51;;;;;;;50.53;28.90;;;;;;;;;;4958461;28;20062;-65
2021/12/22 08:55:18;;;;;;;51.20;30.02;;;;;;;;;;4960891;28;20051;-65
2021/12/22 08:57:44;;;;;;;54.30;31.25;;;;;;;;;;4960208;28;20114;-65
2021/12/22 09:00:12;;;;;;;56.10;31.45;;;;;;;;;;4959298;28;20051;-65
2021/12/22 09:02:39;;;;;;;47.58;27.50;;;;;;;;;;4959035;28;20048;-65
2021/12/22 09:05:08;;;;;;;41.75;24.42;;;;;;;;;;4963051;28;20044;-65
2021/12/22 09:07:35;;;;;;;41.08;22.90;;;;;;;;;;4968953;28;20106;-65
2021/12/22 09:10:03;;;;;;;44.28;25.23;;;;;;;;;;4963251;28;20098;-65
2021/12/22 09:12:29;;;;;;;44.15;22.05;;;;;;;;;;4966954;28;20047;-69
2021/12/22 09:14:56;;;;;;;40.72;23.10;;;;;;;;;;4962981;28;20091;-68
2021/12/22 09:17:23;;;;;;;40.45;22.52;;;;;;;;;;4965712;28;20050;-71
2021/12/22 09:19:52;;;;;;;45.33;22.85;;;;;;;;;;4968814;28;20473;-66
2021/12/22 09:22:20;;;;;;;39.88;23.33;;;;;;;;;;4969678;28;20089;-72
2021/12/22 09:24:46;;;;;;;43.38;23.90;;;;;;;;;;4971535;28;20044;-68
2021/12/22 09:27:14;;;;;;;40.22;22.30;;;;;;;;;;4970450;28;20051;-68
2021/12/22 09:29:42;;;;;;;38.78;22.08;;;;;;;;;;4973877;28;20055;-72
2021/12/22 09:32:14;;;;;;;36.25;21.30;;;;;;;;;;4982500;28;20132;-68
2021/12/22 09:34:42;;;;;;;43.63;22.05;;;;;;;;;;4974189;28;20106;-66
2021/12/22 09:37:09;;;;;;;33.22;20.05;;;;;;;;;;4967319;28;20055;-72
2021/12/22 09:39:36;;;;;;;35.83;21.15;;;;;;;;;;4961056;28;20410;-69
2021/12/22 09:42:03;;;;;;;36.47;21.25;;;;;;;;;;4959539;28;20059;-71
2021/12/22 09:44:32;;;;;;;31.88;19.60;;;;;;;;;;4960019;28;20051;-71
2021/12/22 09:47:00;;;;;;;37.67;20.67;;;;;;;;;;4962861;28;20061;-69
2021/12/22 09:49:47;;;;;;;33.92;20.83;;;;;;;;;;4958472;28;20055;-70
2021/12/22 09:52:21;;;;;;;33.58;19.98;;;;;;;;;;4988014;28;20109;-71
2021/12/22 09:54:55;;;;;;;31.83;18.90;;;;;;;;;;4960311;28;20049;-70
2021/12/22 09:57:23;;;;;;;37.50;20.52;;;;;;;;;;4959303;28;20055;-72
2021/12/22 09:59:50;;;;;;;36.00;19.65;;;;;;;;;;4957266;28;20050;-65
2021/12/22 10:02:18;;;;;;;31.60;19.15;;;;;;;;;;4958534;28;20107;-64
2021/12/22 10:04:46;;;;;;;36.92;20.95;;;;;;;;;;4993689;28;20465;-65
2021/12/22 10:07:20;;;;;;;32.35;20.55;;;;;;;;;;4962323;28;20477;-68
2021/12/22 10:09:48;;;;;;;31.42;18.50;;;;;;;;;;4962325;28;20046;-68
2021/12/22 10:12:23;;;;;;;31.55;18.85;;;;;;;;;;4959295;28;20054;-69
2021/12/22 10:14:57;;;;;;;32.30;20.17;;;;;;;;;;4984531;28;20047;-66
2021/12/22 10:17:42;;;;;;;29.13;18.20;;;;;;;;;;4958781;28;20074;-67
2021/12/22 10:20:17;;;;;;;29.20;17.73;;;;;;;;;;4962519;28;20090;-69
2021/12/22 10:22:48;;;;;;;30.88;17.08;;;;;;;;;;4959800;28;20054;-68
2021/12/22 10:25:22;;;;;;;28.15;17.40;;;;;;;;;;4965236;28;20051;-68
2021/12/22 10:28:06;;;;;;;27.30;16.35;;;;;;;;;;4960826;28;20050;-69
2021/12/22 10:30:39;;;;;;;33.55;19.27;;;;;;;;;;4957165;28;20163;-66
2021/12/22 10:33:13;;;;;;;31.55;18.30;;;;;;;;;;4959197;28;20058;-70
2021/12/22 10:35:41;;;;;;;30.88;18.25;;;;;;;;;;4957688;28;20457;-72
2021/12/22 10:38:10;;;;;;;30.40;17.65;;;;;;;;;;4961378;28;20051;-68
2021/12/22 10:40:48;;;;;;;26.60;16.55;;;;;;;;;;4960154;28;20109;-67
2021/12/22 10:43:33;;;;;;;29.00;16.38;;;;;;;;;;4959735;28;20502;-68
2021/12/22 10:46:02;;;;;;;22.70;14.77;;;;;;;;;;4961988;28;20103;-69
2021/12/22 10:51:29;;;;;;;22.75;14.90;;;;;;;;;;4965832;28;20502;-64
2021/12/22 10:53:57;;;;;;;25.55;15.52;;;;;;;;;;4963896;28;20051;-64
2021/12/22 10:56:28;;;;;;;25.42;15.68;;;;;;;;;;4961120;28;20417;-66
2021/12/22 10:59:05;;;;;;;27.23;15.77;;;;;;;;;;4965742;28;20063;-65
2021/12/22 11:01:35;;;;;;;23.88;14.38;;;;;;;;;;4966826;28;20055;-64
2021/12/22 11:04:05;;;;;;;22.88;14.00;;;;;;;;;;4964851;28;20102;-65
2021/12/22 11:06:34;;;;;;;20.48;13.45;;;;;;;;;;4959544;28;20039;-64
2021/12/22 11:09:05;;;;;;;25.38;13.85;;;;;;;;;;4967174;28;20536;-64
2021/12/22 11:11:37;;;;;;;23.27;15.35;;;;;;;;;;4992341;28;20051;-68
2021/12/22 11:14:11;;;;;;;24.67;16.05;;;;;;;;;;4958447;28;20123;-66
2021/12/22 11:16:58;;;;;;;26.05;15.75;;;;;;;;;;4958636;28;20560;-69
2021/12/22 11:19:28;;;;;;;21.15;14.27;;;;;;;;;;4961053;28;20078;-69
2021/12/22 11:22:02;;;;;;;24.67;15.55;;;;;;;;;;4962456;28;20111;-71
2021/12/22 11:24:30;;;;;;;23.77;15.73;;;;;;;;;;4963153;28;20051;-67
2021/12/22 11:26:57;;;;;;;24.23;15.60;;;;;;;;;;4966059;28;20098;-67
2021/12/22 11:29:24;;;;;;;24.27;15.98;;;;;;;;;;4961528;28;20102;-68
2021/12/22 11:31:51;;;;;;;25.13;15.40;;;;;;;;;;4965663;28;20093;-68
2021/12/22 11:34:19;;;;;;;23.80;15.40;;;;;;;;;;4961452;28;20106;-67
2021/12/22 11:36:46;;;;;;;24.00;14.00;;;;;;;;;;4963508;28;20074;-66
2021/12/22 11:39:13;;;;;;;24.55;15.75;;;;;;;;;;4961761;28;20059;-66
2021/12/22 11:41:44;;;;;;;22.02;13.90;;;;;;;;;;4974452;28;20115;-66
2021/12/22 11:44:11;;;;;;;22.83;14.10;;;;;;;;;;4960403;28;20054;-66
2021/12/22 11:46:37;;;;;;;25.27;14.88;;;;;;;;;;4959686;28;20054;-67
2021/12/22 11:49:04;;;;;;;24.98;15.13;;;;;;;;;;4961269;28;20106;-66
2021/12/22 11:51:34;;;;;;;21.73;14.13;;;;;;;;;;4973217;28;20130;-67
2021/12/22 11:54:07;;;;;;;21.70;14.63;;;;;;;;;;4993439;28;20498;-65
2021/12/22 11:56:45;;;;;;;26.23;15.93;;;;;;;;;;4958790;28;20043;-66
2021/12/22 11:59:26;;;;;;;23.85;14.82;;;;;;;;;;4964045;28;20051;-66
2021/12/22 12:02:18;;;;;;;23.20;15.05;;;;;;;;;;4961339;28;20050;-65
2021/12/22 12:04:48;;;;;;;23.83;14.87;;;;;;;;;;4962906;28;20109;-72
2021/12/22 12:07:42;;;;;;;24.10;15.13;;;;;;;;;;4975673;28;20051;-70
2021/12/22 12:10:42;;;;;;;23.95;15.63;;;;;;;;;;4963415;28;20122;-72
2021/12/22 12:13:18;;;;;;;17.52;13.13;;;;;;;;;;4961677;28;20142;-72
2021/12/22 12:21:56;;;;;;;20.63;14.05;;;;;;;;;;4962152;28;20086;-72
2021/12/22 12:24:49;;;;;;;19.45;12.23;;;;;;;;;;4960468;28;20055;-72
2021/12/22 12:27:34;;;;;;;19.95;12.88;;;;;;;;;;4964201;28;20047;-70
2021/12/22 12:30:14;;;;;;;18.67;12.98;;;;;;;;;;4965646;28;20097;-72
2021/12/22 12:32:40;;;;;;;22.10;12.95;;;;;;;;;;4964800;28;20498;-69
2021/12/22 12:35:19;;;;;;;16.60;12.75;;;;;;;;;;4960499;28;20094;-67
2021/12/22 12:38:04;;;;;;;17.98;12.32;;;;;;;;;;4961435;28;20079;-67
2021/12/22 12:41:06;;;;;;;16.13;12.57;;;;;;;;;;4964377;28;20055;-67
2021/12/22 12:44:02;;;;;;;19.17;13.40;;;;;;;;;;4964097;28;20110;-68
2021/12/22 12:46:37;;;;;;;16.92;12.55;;;;;;;;;;4963534;28;20051;-67
2021/12/22 12:49:04;;;;;;;17.52;12.88;;;;;;;;;;4959628;28;20534;-65
2021/12/22 12:51:46;;;;;;;19.73;13.45;;;;;;;;;;4963691;28;20058;-66
2021/12/22 12:54:15;;;;;;;21.55;13.25;;;;;;;;;;4962625;28;20105;-68
2021/12/22 12:56:50;;;;;;;19.73;13.63;;;;;;;;;;4964553;28;20468;-67
2021/12/22 12:59:26;;;;;;;20.05;13.73;;;;;;;;;;4960508;28;20110;-68
2021/12/22 13:01:59;;;;;;;19.30;12.95;;;;;;;;;;4960896;28;20047;-67
2021/12/22 13:04:43;;;;;;;20.10;13.98;;;;;;;;;;4960936;28;20354;-69
2021/12/22 13:07:17;;;;;;;23.20;14.55;;;;;;;;;;4989364;28;20047;-65
2021/12/22 13:09:54;;;;;;;21.50;13.43;;;;;;;;;;4965713;28;20686;-67
2021/12/22 13:18:05;;;;;;;18.60;13.27;;;;;;;;;;4960557;28;20140;-68
2021/12/22 13:20:37;;;;;;;21.40;14.60;;;;;;;;;;4963988;28;20110;-69
2021/12/22 13:23:13;;;;;;;23.27;13.70;;;;;;;;;;4961545;28;20047;-72
2021/12/22 13:25:41;;;;;;;19.42;13.20;;;;;;;;;;4960546;28;20046;-70
2021/12/22 13:28:14;;;;;;;18.90;13.65;;;;;;;;;;4960452;28;20106;-65
2021/12/22 13:30:55;;;;;;;19.48;13.65;;;;;;;;;;4964514;28;20454;-69
2021/12/22 13:33:37;;;;;;;21.08;14.55;;;;;;;;;;4959713;28;20629;-65
2021/12/22 13:36:10;;;;;;;22.27;14.15;;;;;;;;;;4991287;28;20496;-64
2021/12/22 13:38:44;;;;;;;21.30;15.43;;;;;;;;;;4960735;28;20051;-65
2021/12/22 13:41:29;;;;;;;21.20;13.73;;;;;;;;;;4958990;28;20596;-64
2021/12/22 13:44:01;;;;;;;20.33;12.25;;;;;;;;;;4957267;28;20521;-64
2021/12/22 13:46:32;;;;;;;20.67;13.20;;;;;;;;;;4960961;28;20053;-65
2021/12/22 13:49:06;;;;;;;22.25;14.73;;;;;;;;;;4959622;28;20047;-65
2021/12/22 13:51:36;;;;;;;20.73;13.93;;;;;;;;;;4988301;28;20059;-65
2021/12/22 13:54:08;;;;;;;22.58;13.40;;;;;;;;;;4959328;28;20469;-65
2021/12/22 13:56:35;;;;;;;22.23;13.57;;;;;;;;;;4993101;28;20043;-64
2021/12/22 13:59:06;;;;;;;24.23;13.70;;;;;;;;;;4959559;28;20418;-65
2021/12/22 14:01:34;;;;;;;24.15;14.13;;;;;;;;;;4960307;28;20130;-65
2021/12/22 14:04:02;;;;;;;23.55;14.70;;;;;;;;;;4958733;28;20520;-64
2021/12/22 14:06:31;;;;;;;22.10;13.27;;;;;;;;;;4963454;28;20043;-65
2021/12/22 14:09:08;;;;;;;19.65;13.25;;;;;;;;;;4962102;28;20094;-65
2021/12/22 14:11:56;;;;;;;22.35;14.15;;;;;;;;;;4958934;28;20565;-65
2021/12/22 14:14:33;;;;;;;23.05;14.00;;;;;;;;;;4960487;28;20046;-65
2021/12/22 14:17:03;;;;;;;22.83;14.63;;;;;;;;;;4963678;28;20093;-65
2021/12/22 14:19:34;;;;;;;26.55;14.57;;;;;;;;;;4958535;28;20055;-65
2021/12/22 14:22:05;;;;;;;19.77;13.93;;;;;;;;;;4963006;28;20533;-67
2021/12/22 14:24:37;;;;;;;23.67;14.82;;;;;;;;;;4958684;28;20059;-67
2021/12/22 14:27:04;;;;;;;24.83;15.00;;;;;;;;;;4963127;28;20097;-69
2021/12/22 14:29:32;;;;;;;23.70;15.05;;;;;;;;;;4959930;28;20057;-69
2021/12/22 14:32:06;;;;;;;23.08;14.77;;;;;;;;;;4959036;28;20047;-67
2021/12/22 14:34:33;;;;;;;23.75;14.45;;;;;;;;;;4958234;28;20110;-67
2021/12/22 14:37:01;;;;;;;25.20;15.23;;;;;;;;;;4961121;28;20098;-69
2021/12/22 14:39:42;;;;;;;24.95;15.50;;;;;;;;;;4960405;28;20105;-68
2021/12/22 14:42:23;;;;;;;23.42;14.65;;;;;;;;;;4960541;28;20054;-69
2021/12/22 14:45:31;;;;;;;24.65;14.90;;;;;;;;;;4961962;28;20055;-68
2021/12/22 14:48:18;;;;;;;24.00;14.77;;;;;;;;;;4963671;28;20494;-67
2021/12/22 14:51:21;;;;;;;22.05;14.90;;;;;;;;;;4960316;28;20438;-70
2021/12/22 14:53:59;;;;;;;23.95;15.65;;;;;;;;;;4988124;28;20070;-71
2021/12/22 14:56:49;;;;;;;24.90;15.35;;;;;;;;;;4961392;28;20093;-68
2021/12/22 14:59:16;;;;;;;28.50;15.35;;;;;;;;;;4964039;28;20059;-70
2021/12/22 15:01:44;;;;;;;25.33;15.15;;;;;;;;;;4964917;28;20053;-71
2021/12/22 15:04:12;;;;;;;24.63;14.82;;;;;;;;;;5000939;28;20046;-71
2021/12/22 15:06:39;;;;;;;26.55;13.68;;;;;;;;;;4967797;28;20066;-68
2021/12/22 15:09:07;;;;;;;26.55;15.25;;;;;;;;;;4964450;28;20047;-71
2021/12/22 15:11:35;;;;;;;25.63;15.70;;;;;;;;;;4964852;28;20129;-69